Terminal Aerodrome Forecast
Issued by NWS

Home | Current Version | Previous Version | Text Only | Print | Product List | Glossary On
Versions: 1 2 3 4 5 6 7 8 9 10 11 12 13
035
FTUS43 KMPX 040520
TAFRNH
TAF
KRNH 040520Z 0406/0506 14007KT 5SM -SN OVC020
     FM040800 15008KT 2SM -SN BR OVC008
     FM041400 16008KT 1 1/2SM -SN BR OVC007
     FM041900 21008KT 5SM -SN OVC008
     FM042200 24008KT P6SM OVC015=

USA.gov is the U.S. government's official web portal to all federal, state and local government web resources and services.